sensor_id;sensor_type;location;lat;lon;timestamp;P1;durP1;ratioP1;P2;durP2;ratioP2
6033;SDS011;3045;43.226;27.858;2022-08-03T00:00:14;5.57;;;5.15;;
6033;SDS011;3045;43.226;27.858;2022-08-03T00:02:42;5.80;;;5.40;;
6033;SDS011;3045;43.226;27.858;2022-08-03T00:05:08;4.82;;;4.72;;
6033;SDS011;3045;43.226;27.858;2022-08-03T00:07:35;5.35;;;5.15;;
6033;SDS011;3045;43.226;27.858;2022-08-03T00:10:03;5.05;;;4.75;;
6033;SDS011;3045;43.226;27.858;2022-08-03T00:12:30;4.80;;;4.53;;
6033;SDS011;3045;43.226;27.858;2022-08-03T00:14:57;7.25;;;6.95;;
6033;SDS011;3045;43.226;27.858;2022-08-03T00:17:26;7.15;;;6.85;;
6033;SDS011;3045;43.226;27.858;2022-08-03T00:19:53;9.23;;;8.30;;
6033;SDS011;3045;43.226;27.858;2022-08-03T00:22:20;7.95;;;7.35;;
6033;SDS011;3045;43.226;27.858;2022-08-03T00:24:46;6.72;;;6.45;;
6033;SDS011;3045;43.226;27.858;2022-08-03T00:27:13;8.15;;;7.43;;
6033;SDS011;3045;43.226;27.858;2022-08-03T00:29:40;7.32;;;6.78;;
6033;SDS011;3045;43.226;27.858;2022-08-03T00:32:07;7.18;;;6.78;;
6033;SDS011;3045;43.226;27.858;2022-08-03T00:34:35;7.18;;;6.55;;
6033;SDS011;3045;43.226;27.858;2022-08-03T00:37:02;7.00;;;6.57;;
6033;SDS011;3045;43.226;27.858;2022-08-03T00:39:29;7.15;;;6.65;;
6033;SDS011;3045;43.226;27.858;2022-08-03T00:41:56;6.97;;;6.70;;
6033;SDS011;3045;43.226;27.858;2022-08-03T00:44:23;7.03;;;6.72;;
6033;SDS011;3045;43.226;27.858;2022-08-03T00:46:51;7.00;;;6.60;;
6033;SDS011;3045;43.226;27.858;2022-08-03T00:49:18;5.93;;;5.63;;
6033;SDS011;3045;43.226;27.858;2022-08-03T00:51:47;5.82;;;5.47;;
6033;SDS011;3045;43.226;27.858;2022-08-03T00:54:14;5.05;;;4.95;;
6033;SDS011;3045;43.226;27.858;2022-08-03T00:56:41;4.63;;;4.53;;
6033;SDS011;3045;43.226;27.858;2022-08-03T00:59:09;4.70;;;4.60;;
6033;SDS011;3045;43.226;27.858;2022-08-03T01:01:36;4.93;;;4.72;;
6033;SDS011;3045;43.226;27.858;2022-08-03T01:04:03;5.43;;;5.13;;
6033;SDS011;3045;43.226;27.858;2022-08-03T01:06:31;5.55;;;5.15;;
6033;SDS011;3045;43.226;27.858;2022-08-03T01:09:08;5.45;;;5.05;;
6033;SDS011;3045;43.226;27.858;2022-08-03T01:11:43;5.38;;;5.18;;
6033;SDS011;3045;43.226;27.858;2022-08-03T01:14:16;6.13;;;5.22;;
6033;SDS011;3045;43.226;27.858;2022-08-03T01:16:50;4.53;;;4.43;;
6033;SDS011;3045;43.226;27.858;2022-08-03T01:19:35;5.22;;;5.03;;
6033;SDS011;3045;43.226;27.858;2022-08-03T01:22:16;5.45;;;5.25;;
6033;SDS011;3045;43.226;27.858;2022-08-03T01:24:57;5.35;;;5.15;;
6033;SDS011;3045;43.226;27.858;2022-08-03T01:27:35;5.28;;;4.97;;
6033;SDS011;3045;43.226;27.858;2022-08-03T01:30:21;4.90;;;4.70;;
6033;SDS011;3045;43.226;27.858;2022-08-03T01:32:53;5.22;;;4.95;;
6033;SDS011;3045;43.226;27.858;2022-08-03T01:35:25;4.60;;;4.40;;
6033;SDS011;3045;43.226;27.858;2022-08-03T01:37:55;4.88;;;4.55;;
6033;SDS011;3045;43.226;27.858;2022-08-03T01:40:26;4.82;;;4.43;;
6033;SDS011;3045;43.226;27.858;2022-08-03T01:42:56;5.18;;;4.97;;
6033;SDS011;3045;43.226;27.858;2022-08-03T01:45:27;4.82;;;4.43;;
6033;SDS011;3045;43.226;27.858;2022-08-03T01:47:56;4.70;;;4.60;;
6033;SDS011;3045;43.226;27.858;2022-08-03T01:50:26;4.75;;;4.45;;
6033;SDS011;3045;43.226;27.858;2022-08-03T01:52:56;8.15;;;4.97;;
6033;SDS011;3045;43.226;27.858;2022-08-03T01:55:24;4.97;;;4.88;;
6033;SDS011;3045;43.226;27.858;2022-08-03T01:57:52;5.63;;;5.15;;
6033;SDS011;3045;43.226;27.858;2022-08-03T02:00:21;5.40;;;5.20;;
6033;SDS011;3045;43.226;27.858;2022-08-03T02:02:50;5.07;;;4.88;;
6033;SDS011;3045;43.226;27.858;2022-08-03T02:05:20;5.40;;;5.20;;
6033;SDS011;3045;43.226;27.858;2022-08-03T02:07:47;5.10;;;4.82;;
6033;SDS011;3045;43.226;27.858;2022-08-03T02:10:18;5.15;;;4.75;;
6033;SDS011;3045;43.226;27.858;2022-08-03T02:12:46;5.68;;;5.30;;
6033;SDS011;3045;43.226;27.858;2022-08-03T02:15:15;5.45;;;4.70;;
6033;SDS011;3045;43.226;27.858;2022-08-03T02:17:44;5.50;;;5.30;;
6033;SDS011;3045;43.226;27.858;2022-08-03T02:20:13;5.53;;;5.22;;
6033;SDS011;3045;43.226;27.858;2022-08-03T02:22:42;5.53;;;5.32;;
6033;SDS011;3045;43.226;27.858;2022-08-03T02:25:10;5.18;;;4.97;;
6033;SDS011;3045;43.226;27.858;2022-08-03T02:27:40;5.25;;;5.03;;
6033;SDS011;3045;43.226;27.858;2022-08-03T02:30:14;5.32;;;5.03;;
6033;SDS011;3045;43.226;27.858;2022-08-03T02:32:41;5.18;;;4.88;;
6033;SDS011;3045;43.226;27.858;2022-08-03T02:35:15;5.13;;;4.50;;
6033;SDS011;3045;43.226;27.858;2022-08-03T02:37:45;4.45;;;4.35;;
6033;SDS011;3045;43.226;27.858;2022-08-03T02:40:15;5.20;;;5.00;;
6033;SDS011;3045;43.226;27.858;2022-08-03T02:42:45;5.13;;;4.80;;
6033;SDS011;3045;43.226;27.858;2022-08-03T02:45:14;5.35;;;4.95;;
6033;SDS011;3045;43.226;27.858;2022-08-03T02:47:43;6.30;;;5.70;;
6033;SDS011;3045;43.226;27.858;2022-08-03T02:50:15;5.43;;;5.22;;
6033;SDS011;3045;43.226;27.858;2022-08-03T02:52:43;5.22;;;4.80;;
6033;SDS011;3045;43.226;27.858;2022-08-03T02:55:13;5.15;;;4.95;;
6033;SDS011;3045;43.226;27.858;2022-08-03T02:57:41;4.68;;;4.47;;
6033;SDS011;3045;43.226;27.858;2022-08-03T03:00:10;5.05;;;4.75;;
6033;SDS011;3045;43.226;27.858;2022-08-03T03:02:39;5.68;;;5.18;;
6033;SDS011;3045;43.226;27.858;2022-08-03T03:05:07;5.18;;;4.97;;
6033;SDS011;3045;43.226;27.858;2022-08-03T03:07:37;5.00;;;4.70;;
6033;SDS011;3045;43.226;27.858;2022-08-03T03:10:05;4.80;;;4.57;;
6033;SDS011;3045;43.226;27.858;2022-08-03T03:12:34;4.97;;;4.78;;
6033;SDS011;3045;43.226;27.858;2022-08-03T03:15:02;5.10;;;4.72;;
6033;SDS011;3045;43.226;27.858;2022-08-03T03:17:32;5.28;;;4.88;;
6033;SDS011;3045;43.226;27.858;2022-08-03T03:19:59;5.32;;;4.95;;
6033;SDS011;3045;43.226;27.858;2022-08-03T03:22:26;5.53;;;5.13;;
6033;SDS011;3045;43.226;27.858;2022-08-03T03:24:56;7.35;;;5.60;;
6033;SDS011;3045;43.226;27.858;2022-08-03T03:27:23;8.98;;;5.28;;
6033;SDS011;3045;43.226;27.858;2022-08-03T03:29:51;8.63;;;4.78;;
6033;SDS011;3045;43.226;27.858;2022-08-03T03:32:18;5.90;;;5.32;;
6033;SDS011;3045;43.226;27.858;2022-08-03T03:34:45;5.40;;;4.68;;
6033;SDS011;3045;43.226;27.858;2022-08-03T03:37:13;4.90;;;4.45;;
6033;SDS011;3045;43.226;27.858;2022-08-03T03:39:40;4.43;;;4.03;;
6033;SDS011;3045;43.226;27.858;2022-08-03T03:42:08;4.43;;;4.13;;
6033;SDS011;3045;43.226;27.858;2022-08-03T03:44:35;4.22;;;4.13;;
6033;SDS011;3045;43.226;27.858;2022-08-03T03:47:02;4.80;;;4.50;;
6033;SDS011;3045;43.226;27.858;2022-08-03T03:49:29;5.05;;;4.20;;
6033;SDS011;3045;43.226;27.858;2022-08-03T03:51:56;5.20;;;4.78;;
6033;SDS011;3045;43.226;27.858;2022-08-03T03:54:23;10.57;;;5.53;;
6033;SDS011;3045;43.226;27.858;2022-08-03T03:56:50;6.47;;;4.70;;
6033;SDS011;3045;43.226;27.858;2022-08-03T03:59:19;7.07;;;4.25;;
6033;SDS011;3045;43.226;27.858;2022-08-03T04:01:46;5.70;;;4.30;;
6033;SDS011;3045;43.226;27.858;2022-08-03T04:04:12;4.70;;;4.40;;
6033;SDS011;3045;43.226;27.858;2022-08-03T04:06:57;4.60;;;4.15;;
6033;SDS011;3045;43.226;27.858;2022-08-03T04:09:41;3.85;;;3.63;;
6033;SDS011;3045;43.226;27.858;2022-08-03T04:12:29;3.90;;;3.80;;
6033;SDS011;3045;43.226;27.858;2022-08-03T04:14:59;4.38;;;3.97;;
6033;SDS011;3045;43.226;27.858;2022-08-03T04:17:28;4.40;;;3.80;;
6033;SDS011;3045;43.226;27.858;2022-08-03T04:19:57;3.80;;;3.70;;
6033;SDS011;3045;43.226;27.858;2022-08-03T04:22:28;4.47;;;4.00;;
6033;SDS011;3045;43.226;27.858;2022-08-03T04:24:58;4.70;;;4.32;;
6033;SDS011;3045;43.226;27.858;2022-08-03T04:27:30;4.32;;;4.03;;
6033;SDS011;3045;43.226;27.858;2022-08-03T04:30:02;4.43;;;3.97;;
6033;SDS011;3045;43.226;27.858;2022-08-03T04:32:30;4.00;;;3.70;;
6033;SDS011;3045;43.226;27.858;2022-08-03T04:34:58;7.20;;;4.18;;
6033;SDS011;3045;43.226;27.858;2022-08-03T04:37:38;4.80;;;4.60;;
6033;SDS011;3045;43.226;27.858;2022-08-03T04:40:12;3.70;;;3.60;;
6033;SDS011;3045;43.226;27.858;2022-08-03T04:42:40;6.18;;;4.20;;
6033;SDS011;3045;43.226;27.858;2022-08-03T04:45:11;4.05;;;3.78;;
6033;SDS011;3045;43.226;27.858;2022-08-03T04:47:40;4.28;;;3.95;;
6033;SDS011;3045;43.226;27.858;2022-08-03T04:50:08;3.85;;;3.75;;
6033;SDS011;3045;43.226;27.858;2022-08-03T04:52:36;4.60;;;4.20;;
6033;SDS011;3045;43.226;27.858;2022-08-03T04:55:03;3.63;;;3.53;;
6033;SDS011;3045;43.226;27.858;2022-08-03T04:57:31;4.13;;;4.00;;
6033;SDS011;3045;43.226;27.858;2022-08-03T04:59:57;4.03;;;3.83;;
6033;SDS011;3045;43.226;27.858;2022-08-03T05:02:26;3.90;;;3.78;;
6033;SDS011;3045;43.226;27.858;2022-08-03T05:04:53;3.72;;;3.58;;
6033;SDS011;3045;43.226;27.858;2022-08-03T05:07:20;9.88;;;9.15;;
6033;SDS011;3045;43.226;27.858;2022-08-03T05:09:46;13.25;;;12.15;;
6033;SDS011;3045;43.226;27.858;2022-08-03T05:12:13;4.20;;;4.00;;
6033;SDS011;3045;43.226;27.858;2022-08-03T05:14:40;3.45;;;3.25;;
6033;SDS011;3045;43.226;27.858;2022-08-03T05:17:07;3.67;;;3.47;;
6033;SDS011;3045;43.226;27.858;2022-08-03T05:19:35;3.47;;;3.38;;
6033;SDS011;3045;43.226;27.858;2022-08-03T05:22:02;3.95;;;3.65;;
6033;SDS011;3045;43.226;27.858;2022-08-03T05:24:29;4.60;;;4.15;;
6033;SDS011;3045;43.226;27.858;2022-08-03T05:26:56;5.93;;;4.50;;
6033;SDS011;3045;43.226;27.858;2022-08-03T05:29:23;4.60;;;3.60;;
6033;SDS011;3045;43.226;27.858;2022-08-03T05:31:50;4.47;;;3.70;;
6033;SDS011;3045;43.226;27.858;2022-08-03T05:34:16;3.63;;;3.33;;
6033;SDS011;3045;43.226;27.858;2022-08-03T05:36:45;3.40;;;3.30;;
6033;SDS011;3045;43.226;27.858;2022-08-03T05:39:12;3.25;;;3.15;;
6033;SDS011;3045;43.226;27.858;2022-08-03T05:41:38;3.63;;;3.42;;
6033;SDS011;3045;43.226;27.858;2022-08-03T05:44:05;4.28;;;3.50;;
6033;SDS011;3045;43.226;27.858;2022-08-03T05:46:32;3.28;;;3.08;;
6033;SDS011;3045;43.226;27.858;2022-08-03T05:48:59;5.20;;;3.60;;
6033;SDS011;3045;43.226;27.858;2022-08-03T05:51:26;2.83;;;2.72;;
6033;SDS011;3045;43.226;27.858;2022-08-03T05:53:54;2.15;;;2.15;;
6033;SDS011;3045;43.226;27.858;2022-08-03T05:56:21;2.15;;;2.05;;
6033;SDS011;3045;43.226;27.858;2022-08-03T05:58:51;2.47;;;2.38;;
6033;SDS011;3045;43.226;27.858;2022-08-03T06:01:19;2.90;;;2.70;;
6033;SDS011;3045;43.226;27.858;2022-08-03T06:03:47;2.13;;;2.03;;
6033;SDS011;3045;43.226;27.858;2022-08-03T06:06:14;2.10;;;2.00;;
6033;SDS011;3045;43.226;27.858;2022-08-03T06:08:42;2.25;;;2.15;;
6033;SDS011;3045;43.226;27.858;2022-08-03T06:11:11;3.20;;;1.75;;
6033;SDS011;3045;43.226;27.858;2022-08-03T06:13:38;2.15;;;2.00;;
6033;SDS011;3045;43.226;27.858;2022-08-03T06:16:06;2.88;;;2.03;;
6033;SDS011;3045;43.226;27.858;2022-08-03T06:18:33;2.38;;;2.28;;
6033;SDS011;3045;43.226;27.858;2022-08-03T06:21:00;4.75;;;2.13;;
6033;SDS011;3045;43.226;27.858;2022-08-03T06:23:27;2.40;;;2.30;;
6033;SDS011;3045;43.226;27.858;2022-08-03T06:25:54;5.25;;;2.55;;
6033;SDS011;3045;43.226;27.858;2022-08-03T06:28:24;9.25;;;2.80;;
6033;SDS011;3045;43.226;27.858;2022-08-03T06:30:52;2.47;;;2.40;;
6033;SDS011;3045;43.226;27.858;2022-08-03T06:33:19;3.38;;;2.50;;
6033;SDS011;3045;43.226;27.858;2022-08-03T06:35:45;8.35;;;2.60;;
6033;SDS011;3045;43.226;27.858;2022-08-03T06:38:12;3.25;;;2.42;;
6033;SDS011;3045;43.226;27.858;2022-08-03T06:40:39;2.28;;;2.17;;
6033;SDS011;3045;43.226;27.858;2022-08-03T06:43:06;2.00;;;2.00;;
6033;SDS011;3045;43.226;27.858;2022-08-03T06:45:35;2.33;;;2.22;;
6033;SDS011;3045;43.226;27.858;2022-08-03T06:48:02;2.28;;;2.17;;
6033;SDS011;3045;43.226;27.858;2022-08-03T06:50:31;2.25;;;2.15;;
6033;SDS011;3045;43.226;27.858;2022-08-03T06:53:00;2.10;;;2.10;;
6033;SDS011;3045;43.226;27.858;2022-08-03T06:55:27;2.00;;;1.90;;
6033;SDS011;3045;43.226;27.858;2022-08-03T06:57:54;2.15;;;2.10;;
6033;SDS011;3045;43.226;27.858;2022-08-03T07:00:21;2.20;;;2.10;;
6033;SDS011;3045;43.226;27.858;2022-08-03T07:02:50;2.17;;;2.08;;
6033;SDS011;3045;43.226;27.858;2022-08-03T07:05:17;4.60;;;2.35;;
6033;SDS011;3045;43.226;27.858;2022-08-03T07:07:44;1.95;;;1.83;;
6033;SDS011;3045;43.226;27.858;2022-08-03T07:10:11;3.10;;;3.00;;
6033;SDS011;3045;43.226;27.858;2022-08-03T07:12:38;4.20;;;1.88;;
6033;SDS011;3045;43.226;27.858;2022-08-03T07:15:08;3.30;;;1.90;;
6033;SDS011;3045;43.226;27.858;2022-08-03T07:17:36;3.13;;;1.90;;
6033;SDS011;3045;43.226;27.858;2022-08-03T07:20:05;2.00;;;1.90;;
6033;SDS011;3045;43.226;27.858;2022-08-03T07:22:33;1.60;;;1.60;;
6033;SDS011;3045;43.226;27.858;2022-08-03T07:59:37;1.73;;;1.63;;
6033;SDS011;3045;43.226;27.858;2022-08-03T08:02:05;1.40;;;1.40;;
6033;SDS011;3045;43.226;27.858;2022-08-03T08:04:32;2.00;;;1.90;;
6033;SDS011;3045;43.226;27.858;2022-08-03T08:07:00;2.25;;;1.88;;
6033;SDS011;3045;43.226;27.858;2022-08-03T08:09:27;3.38;;;1.92;;
6033;SDS011;3045;43.226;27.858;2022-08-03T08:11:54;1.80;;;1.70;;
6033;SDS011;3045;43.226;27.858;2022-08-03T08:14:22;1.67;;;1.67;;
6033;SDS011;3045;43.226;27.858;2022-08-03T08:16:50;1.98;;;1.90;;
6033;SDS011;3045;43.226;27.858;2022-08-03T08:19:17;1.60;;;1.60;;
6033;SDS011;3045;43.226;27.858;2022-08-03T08:21:44;1.60;;;1.50;;
6033;SDS011;3045;43.226;27.858;2022-08-03T08:24:10;2.42;;;1.60;;
6033;SDS011;3045;43.226;27.858;2022-08-03T08:26:39;2.00;;;1.90;;
6033;SDS011;3045;43.226;27.858;2022-08-03T08:29:06;1.73;;;1.63;;
6033;SDS011;3045;43.226;27.858;2022-08-03T08:31:33;1.50;;;1.40;;
6033;SDS011;3045;43.226;27.858;2022-08-03T08:34:03;1.55;;;1.55;;
6033;SDS011;3045;43.226;27.858;2022-08-03T08:36:31;1.88;;;1.77;;
6033;SDS011;3045;43.226;27.858;2022-08-03T08:38:58;1.60;;;1.50;;
6033;SDS011;3045;43.226;27.858;2022-08-03T08:41:25;1.60;;;1.60;;
6033;SDS011;3045;43.226;27.858;2022-08-03T08:43:53;2.00;;;1.70;;
6033;SDS011;3045;43.226;27.858;2022-08-03T08:46:20;2.40;;;1.50;;
6033;SDS011;3045;43.226;27.858;2022-08-03T08:48:48;1.70;;;1.60;;
6033;SDS011;3045;43.226;27.858;2022-08-03T08:51:17;1.50;;;1.50;;
6033;SDS011;3045;43.226;27.858;2022-08-03T08:53:46;1.80;;;1.70;;
6033;SDS011;3045;43.226;27.858;2022-08-03T08:56:15;2.08;;;1.55;;
6033;SDS011;3045;43.226;27.858;2022-08-03T08:58:45;2.33;;;1.40;;
6033;SDS011;3045;43.226;27.858;2022-08-03T09:01:15;1.55;;;1.55;;
6033;SDS011;3045;43.226;27.858;2022-08-03T09:03:46;2.15;;;1.65;;
6033;SDS011;3045;43.226;27.858;2022-08-03T09:06:13;1.70;;;1.60;;
6033;SDS011;3045;43.226;27.858;2022-08-03T09:08:42;1.80;;;1.77;;
6033;SDS011;3045;43.226;27.858;2022-08-03T09:11:09;1.52;;;1.52;;
6033;SDS011;3045;43.226;27.858;2022-08-03T09:13:36;1.20;;;1.20;;
6033;SDS011;3045;43.226;27.858;2022-08-03T09:16:13;6.32;;;1.63;;
6033;SDS011;3045;43.226;27.858;2022-08-03T09:18:41;1.42;;;1.42;;
6033;SDS011;3045;43.226;27.858;2022-08-03T09:21:21;1.80;;;1.70;;
6033;SDS011;3045;43.226;27.858;2022-08-03T09:23:51;1.73;;;1.63;;
6033;SDS011;3045;43.226;27.858;2022-08-03T09:26:19;2.80;;;1.90;;
6033;SDS011;3045;43.226;27.858;2022-08-03T09:28:53;1.17;;;1.17;;
6033;SDS011;3045;43.226;27.858;2022-08-03T09:31:28;1.50;;;1.38;;
6033;SDS011;3045;43.226;27.858;2022-08-03T09:33:55;1.63;;;1.52;;
6033;SDS011;3045;43.226;27.858;2022-08-03T09:36:34;1.92;;;1.80;;
6033;SDS011;3045;43.226;27.858;2022-08-03T09:39:06;2.47;;;1.45;;
6033;SDS011;3045;43.226;27.858;2022-08-03T09:41:35;1.40;;;1.40;;
6033;SDS011;3045;43.226;27.858;2022-08-03T09:44:03;1.25;;;1.25;;
6033;SDS011;3045;43.226;27.858;2022-08-03T09:46:30;1.80;;;1.33;;
6033;SDS011;3045;43.226;27.858;2022-08-03T09:49:09;2.10;;;1.38;;
6033;SDS011;3045;43.226;27.858;2022-08-03T09:51:37;2.95;;;1.50;;
6033;SDS011;3045;43.226;27.858;2022-08-03T09:54:05;1.50;;;1.50;;
6033;SDS011;3045;43.226;27.858;2022-08-03T09:56:39;1.63;;;1.63;;
6033;SDS011;3045;43.226;27.858;2022-08-03T09:59:07;1.55;;;1.55;;
6033;SDS011;3045;43.226;27.858;2022-08-03T10:01:35;1.70;;;1.60;;
6033;SDS011;3045;43.226;27.858;2022-08-03T10:04:07;1.77;;;1.67;;
6033;SDS011;3045;43.226;27.858;2022-08-03T10:06:37;2.90;;;1.70;;
6033;SDS011;3045;43.226;27.858;2022-08-03T10:09:07;1.50;;;1.40;;
6033;SDS011;3045;43.226;27.858;2022-08-03T10:11:35;1.60;;;1.50;;
6033;SDS011;3045;43.226;27.858;2022-08-03T10:14:03;1.25;;;1.25;;
6033;SDS011;3045;43.226;27.858;2022-08-03T10:16:32;1.85;;;1.50;;
6033;SDS011;3045;43.226;27.858;2022-08-03T10:19:00;1.80;;;1.70;;
6033;SDS011;3045;43.226;27.858;2022-08-03T10:21:29;1.17;;;1.17;;
6033;SDS011;3045;43.226;27.858;2022-08-03T10:24:01;1.33;;;1.33;;
6033;SDS011;3045;43.226;27.858;2022-08-03T10:26:31;1.52;;;1.45;;
6033;SDS011;3045;43.226;27.858;2022-08-03T10:29:01;1.60;;;1.50;;
6033;SDS011;3045;43.226;27.858;2022-08-03T10:31:34;1.92;;;1.23;;
6033;SDS011;3045;43.226;27.858;2022-08-03T10:34:05;1.23;;;1.23;;
6033;SDS011;3045;43.226;27.858;2022-08-03T10:36:39;1.95;;;1.50;;
6033;SDS011;3045;43.226;27.858;2022-08-03T10:39:07;1.50;;;1.50;;
6033;SDS011;3045;43.226;27.858;2022-08-03T10:41:40;1.20;;;1.20;;
6033;SDS011;3045;43.226;27.858;2022-08-03T10:44:12;4.65;;;1.42;;
6033;SDS011;3045;43.226;27.858;2022-08-03T10:46:43;2.35;;;1.95;;
6033;SDS011;3045;43.226;27.858;2022-08-03T10:49:12;4.35;;;2.17;;
6033;SDS011;3045;43.226;27.858;2022-08-03T10:51:40;1.75;;;1.65;;
6033;SDS011;3045;43.226;27.858;2022-08-03T10:57:45;1.60;;;1.60;;
6033;SDS011;3045;43.226;27.858;2022-08-03T11:00:13;2.58;;;2.47;;
6033;SDS011;3045;43.226;27.858;2022-08-03T11:05:32;2.88;;;2.67;;
6033;SDS011;3045;43.226;27.858;2022-08-03T11:08:20;3.40;;;3.20;;
6033;SDS011;3045;43.226;27.858;2022-08-03T11:10:59;2.60;;;2.53;;
6033;SDS011;3045;43.226;27.858;2022-08-03T11:13:30;3.10;;;2.88;;
6033;SDS011;3045;43.226;27.858;2022-08-03T11:15:59;3.30;;;3.10;;
6033;SDS011;3045;43.226;27.858;2022-08-03T11:18:29;2.90;;;2.80;;
6033;SDS011;3045;43.226;27.858;2022-08-03T11:20:57;2.80;;;2.70;;
6033;SDS011;3045;43.226;27.858;2022-08-03T11:23:41;2.97;;;2.58;;
6033;SDS011;3045;43.226;27.858;2022-08-03T11:26:13;8.70;;;3.10;;
6033;SDS011;3045;43.226;27.858;2022-08-03T11:28:42;2.78;;;2.67;;
6033;SDS011;3045;43.226;27.858;2022-08-03T11:34:16;3.30;;;2.80;;
6033;SDS011;3045;43.226;27.858;2022-08-03T11:39:48;3.10;;;3.00;;
6033;SDS011;3045;43.226;27.858;2022-08-03T11:45:09;3.25;;;3.05;;
6033;SDS011;3045;43.226;27.858;2022-08-03T11:47:37;5.65;;;2.30;;
6033;SDS011;3045;43.226;27.858;2022-08-03T11:50:08;2.80;;;2.67;;
6033;SDS011;3045;43.226;27.858;2022-08-03T11:52:37;2.50;;;2.40;;
6033;SDS011;3045;43.226;27.858;2022-08-03T11:55:12;3.03;;;2.60;;
6033;SDS011;3045;43.226;27.858;2022-08-03T11:57:41;2.67;;;2.47;;
6033;SDS011;3045;43.226;27.858;2022-08-03T12:00:21;2.90;;;2.80;;
6033;SDS011;3045;43.226;27.858;2022-08-03T12:02:54;2.35;;;2.25;;
6033;SDS011;3045;43.226;27.858;2022-08-03T12:05:41;2.47;;;2.30;;
6033;SDS011;3045;43.226;27.858;2022-08-03T12:08:11;2.42;;;2.33;;
6033;SDS011;3045;43.226;27.858;2022-08-03T12:10:46;3.55;;;2.90;;
6033;SDS011;3045;43.226;27.858;2022-08-03T12:13:17;2.65;;;2.45;;
6033;SDS011;3045;43.226;27.858;2022-08-03T12:15:50;2.40;;;2.30;;
6033;SDS011;3045;43.226;27.858;2022-08-03T12:18:18;2.58;;;2.42;;
6033;SDS011;3045;43.226;27.858;2022-08-03T12:20:47;3.00;;;2.40;;
6033;SDS011;3045;43.226;27.858;2022-08-03T12:23:14;2.65;;;2.35;;
6033;SDS011;3045;43.226;27.858;2022-08-03T12:25:42;2.50;;;2.40;;
6033;SDS011;3045;43.226;27.858;2022-08-03T12:28:11;3.47;;;2.88;;
6033;SDS011;3045;43.226;27.858;2022-08-03T12:30:43;2.72;;;2.63;;
6033;SDS011;3045;43.226;27.858;2022-08-03T12:33:17;2.30;;;2.20;;
6033;SDS011;3045;43.226;27.858;2022-08-03T12:35:48;2.13;;;2.03;;
6033;SDS011;3045;43.226;27.858;2022-08-03T12:38:27;2.60;;;2.40;;
6033;SDS011;3045;43.226;27.858;2022-08-03T12:40:56;2.17;;;2.08;;
6033;SDS011;3045;43.226;27.858;2022-08-03T12:43:24;4.30;;;2.80;;
6033;SDS011;3045;43.226;27.858;2022-08-03T12:46:05;2.75;;;2.65;;
6033;SDS011;3045;43.226;27.858;2022-08-03T12:48:44;3.00;;;2.90;;
6033;SDS011;3045;43.226;27.858;2022-08-03T12:51:33;2.47;;;2.35;;
6033;SDS011;3045;43.226;27.858;2022-08-03T12:54:02;3.40;;;2.97;;
6033;SDS011;3045;43.226;27.858;2022-08-03T12:56:33;4.63;;;2.22;;
6033;SDS011;3045;43.226;27.858;2022-08-03T12:59:00;2.70;;;2.60;;
6033;SDS011;3045;43.226;27.858;2022-08-03T13:01:52;2.45;;;2.25;;
6033;SDS011;3045;43.226;27.858;2022-08-03T13:04:27;2.85;;;2.60;;
6033;SDS011;3045;43.226;27.858;2022-08-03T13:06:56;2.47;;;2.28;;
6033;SDS011;3045;43.226;27.858;2022-08-03T13:09:23;2.20;;;2.10;;
6033;SDS011;3045;43.226;27.858;2022-08-03T13:14:33;3.42;;;2.42;;
6033;SDS011;3045;43.226;27.858;2022-08-03T13:17:00;2.38;;;2.20;;
6033;SDS011;3045;43.226;27.858;2022-08-03T13:19:30;2.20;;;2.10;;
6033;SDS011;3045;43.226;27.858;2022-08-03T13:21:57;2.60;;;2.30;;
6033;SDS011;3045;43.226;27.858;2022-08-03T13:24:24;2.63;;;2.42;;
6033;SDS011;3045;43.226;27.858;2022-08-03T13:26:51;4.57;;;2.10;;
6033;SDS011;3045;43.226;27.858;2022-08-03T13:29:17;2.70;;;2.60;;
6033;SDS011;3045;43.226;27.858;2022-08-03T13:31:44;2.40;;;2.20;;
6033;SDS011;3045;43.226;27.858;2022-08-03T13:34:11;2.00;;;1.98;;
6033;SDS011;3045;43.226;27.858;2022-08-03T13:36:40;2.38;;;2.20;;
6033;SDS011;3045;43.226;27.858;2022-08-03T13:39:08;2.42;;;2.33;;
6033;SDS011;3045;43.226;27.858;2022-08-03T13:41:35;2.28;;;2.17;;
6033;SDS011;3045;43.226;27.858;2022-08-03T13:44:02;1.98;;;1.95;;
6033;SDS011;3045;43.226;27.858;2022-08-03T13:46:29;2.83;;;2.63;;
6033;SDS011;3045;43.226;27.858;2022-08-03T13:48:56;1.77;;;1.77;;
6033;SDS011;3045;43.226;27.858;2022-08-03T13:51:23;2.20;;;2.10;;
6033;SDS011;3045;43.226;27.858;2022-08-03T13:53:52;2.30;;;2.10;;
6033;SDS011;3045;43.226;27.858;2022-08-03T13:56:19;3.85;;;2.30;;
6033;SDS011;3045;43.226;27.858;2022-08-03T13:58:46;2.55;;;2.28;;
6033;SDS011;3045;43.226;27.858;2022-08-03T14:01:13;1.90;;;1.80;;
6033;SDS011;3045;43.226;27.858;2022-08-03T14:03:40;2.33;;;1.88;;
6033;SDS011;3045;43.226;27.858;2022-08-03T14:06:07;2.00;;;1.90;;
6033;SDS011;3045;43.226;27.858;2022-08-03T14:08:34;2.40;;;2.20;;
6033;SDS011;3045;43.226;27.858;2022-08-03T14:11:03;2.20;;;2.00;;
6033;SDS011;3045;43.226;27.858;2022-08-03T14:13:30;4.43;;;2.80;;
6033;SDS011;3045;43.226;27.858;2022-08-03T14:15:57;2.33;;;2.22;;
6033;SDS011;3045;43.226;27.858;2022-08-03T14:18:31;2.47;;;2.38;;
6033;SDS011;3045;43.226;27.858;2022-08-03T14:20:58;2.30;;;2.20;;
6033;SDS011;3045;43.226;27.858;2022-08-03T14:23:26;2.53;;;2.35;;
6033;SDS011;3045;43.226;27.858;2022-08-03T14:25:53;3.63;;;2.05;;
6033;SDS011;3045;43.226;27.858;2022-08-03T14:28:22;4.20;;;1.95;;
6033;SDS011;3045;43.226;27.858;2022-08-03T14:30:49;5.38;;;1.80;;
6033;SDS011;3045;43.226;27.858;2022-08-03T14:33:18;2.30;;;2.20;;
6033;SDS011;3045;43.226;27.858;2022-08-03T14:35:46;2.92;;;2.20;;
6033;SDS011;3045;43.226;27.858;2022-08-03T14:38:14;2.25;;;1.92;;
6033;SDS011;3045;43.226;27.858;2022-08-03T14:40:42;1.85;;;1.75;;
6033;SDS011;3045;43.226;27.858;2022-08-03T14:43:09;1.90;;;1.80;;
6033;SDS011;3045;43.226;27.858;2022-08-03T14:45:38;2.85;;;1.73;;
6033;SDS011;3045;43.226;27.858;2022-08-03T14:48:05;2.10;;;2.00;;
6033;SDS011;3045;43.226;27.858;2022-08-03T14:50:32;3.17;;;2.00;;
6033;SDS011;3045;43.226;27.858;2022-08-03T14:52:59;2.10;;;2.00;;
6033;SDS011;3045;43.226;27.858;2022-08-03T14:55:29;4.43;;;1.80;;
6033;SDS011;3045;43.226;27.858;2022-08-03T14:57:56;2.03;;;1.92;;
6033;SDS011;3045;43.226;27.858;2022-08-03T15:00:32;2.10;;;2.00;;
6033;SDS011;3045;43.226;27.858;2022-08-03T15:03:01;2.05;;;1.95;;
6033;SDS011;3045;43.226;27.858;2022-08-03T15:05:32;2.00;;;1.90;;
6033;SDS011;3045;43.226;27.858;2022-08-03T15:08:04;2.10;;;2.05;;
6033;SDS011;3045;43.226;27.858;2022-08-03T15:10:33;1.98;;;1.83;;
6033;SDS011;3045;43.226;27.858;2022-08-03T15:13:08;1.80;;;1.80;;
6033;SDS011;3045;43.226;27.858;2022-08-03T15:15:35;1.90;;;1.90;;
6033;SDS011;3045;43.226;27.858;2022-08-03T15:18:14;1.95;;;1.92;;
6033;SDS011;3045;43.226;27.858;2022-08-03T15:20:41;1.80;;;1.70;;
6033;SDS011;3045;43.226;27.858;2022-08-03T15:23:08;3.67;;;2.00;;
6033;SDS011;3045;43.226;27.858;2022-08-03T15:25:35;1.70;;;1.70;;
6033;SDS011;3045;43.226;27.858;2022-08-03T15:28:02;2.10;;;2.00;;
6033;SDS011;3045;43.226;27.858;2022-08-03T15:30:30;1.85;;;1.85;;
6033;SDS011;3045;43.226;27.858;2022-08-03T15:33:01;2.22;;;2.13;;
6033;SDS011;3045;43.226;27.858;2022-08-03T15:35:29;2.65;;;1.73;;
6033;SDS011;3045;43.226;27.858;2022-08-03T15:37:57;1.92;;;1.80;;
6033;SDS011;3045;43.226;27.858;2022-08-03T15:40:24;2.90;;;1.98;;
6033;SDS011;3045;43.226;27.858;2022-08-03T15:42:51;2.08;;;1.95;;
6033;SDS011;3045;43.226;27.858;2022-08-03T15:45:18;2.15;;;2.05;;
6033;SDS011;3045;43.226;27.858;2022-08-03T15:47:45;1.80;;;1.80;;
6033;SDS011;3045;43.226;27.858;2022-08-03T15:50:12;2.00;;;2.00;;
6033;SDS011;3045;43.226;27.858;2022-08-03T15:52:40;1.92;;;1.83;;
6033;SDS011;3045;43.226;27.858;2022-08-03T15:55:08;2.55;;;1.98;;
6033;SDS011;3045;43.226;27.858;2022-08-03T15:57:35;2.10;;;2.00;;
6033;SDS011;3045;43.226;27.858;2022-08-03T16:00:03;2.20;;;2.03;;
6033;SDS011;3045;43.226;27.858;2022-08-03T16:02:31;3.80;;;1.90;;
6033;SDS011;3045;43.226;27.858;2022-08-03T16:04:58;2.70;;;2.10;;